Boyne City, MI (49712)

6:18 PM EDT on August 04, 2015 (GMT -0400)
3.4 mi SSW of Boyne City | | Change Station
CLOSE
Current Station
Personal Weather Station
Location: Boyne City, MI
Elevation: 820 ft
Nearby Weather Stations

Elev 820 ft 45.17 °N, 85.04 °W | Updated 8 seconds ago

Mostly Cloudy
Mostly Cloudy
68.8 °F
Feels Like 68.8 °F
N
2.7
Wind Variable Wind from NNW
Gusts 6.9 mph

Today
High -- | Low -- °F
--% Chance of Precip.
Yesterday
High -- | Low -- °F
Precip. -- in
6:28 AM 9:03 PM
Waning Gibbous, 74% visible
Pressure 29.97 in
Visibility 10.0 miles
Clouds Scattered Clouds 6500 ft
Scattered Clouds 8000 ft
Overcast 9500 ft
Dew Point 56 °F
Humidity 63%
Rainfall 0.00 in
Snow Depth Not available.
UV 1 out of 12
Pollen 6.30 out of 12
Air Quality Not available.
Flu Activity Not available.
METAR KCVX 042215Z AUTO 29008KT 10SM SCT065 SCT080 OVC095 19/13 A2997 RMK AO2 T01920130

More Conditions Fewer Conditions

Pressure 29.97 in
Visibility 10.0 miles
Clouds Scattered Clouds 6500 ft
Scattered Clouds 8000 ft
Overcast 9500 ft
Dew Point 56 °F
Humidity 63%
Rainfall 0.00 in
Snow Depth Not available.
UV 1 out of 12
Pollen 6.30 out of 12
Air Quality Not available.
Flu Activity Not available.
METAR KCVX 042215Z AUTO 29008KT 10SM SCT065 SCT080 OVC095 19/13 A2997 RMK AO2 T01920130

More Conditions Fewer Conditions

Nowcast | as of 6:00 PM EDT on August 4, 2015

At 7 PM...partly cloudy. Slight chance of showers. Temperature 65. Northwest winds 13 mph. At 9 PM...partly cloudy. Temperature 62. Northwest winds 13 mph. At 11 PM...mostly clear. Temperature 59. Northwest winds 11 mph. At 1 am...mostly clear. Temperature 57. Northwest winds 10 mph.

×

10-Day Weather Forecast

×

Almanac

Astronomy

Aug. 04, 2015 Rise Set
Actual Time
Civil Twilight
Nautical Twilight
Astronomical Twilight
Moon
Length of Visible Light
Length of Day
Tomorrow will be .
, % of the Moon is Illuminated

Today's Extremes

State Highs State Lows

Community

WunderPhotos

Upload Photos

1,844,002 photos uploaded!

WunderBlogs® & News

Nearby

Air Quality

  Air Quality AQ Index Pollutant
Not available.

Snow Depth

Station Depth Elevation

Earthquake Activity

City Distance Mag. Time & Date
Minimum magnitude displayed is 2.5.

Coastal Water Temperatures

Place Temperature

Stations

Nearby Weather Stations

Station Location Temp. Windchill Dew Point Humidity Wind Precip. Elev Updated Type